ETIC

Grafenwohr Army Air Field Airport

Germany
METAR ETIC 211356Z AUTO 09006KT 9999 SCT070 24/08 A2995 RMK AO2 SLP134 T02410081 $
Observed Flight Rules
May-21 @ 13:56 UTC (46 minutes ago) Visual Flight Rules
Wind Visibility Clouds
90° at 6 knots 10,000+ meters
  • Scattered at 7,000' AGL
Temperatures Readings
Current 24°C / 75°F
Dewpoint 8°C / 46°F
Humidity 36%
Altimeter 29.95" Hg
Pressure 1013.4 hPa
Elevation 415
METAR ETIC 211356Z AUTO 09006KT 9999 SCT070 24/08 A2995 RMK AO2 SLP134 T02410081 $
Observed Flight Rules
May-21 @ 13:56 UTC
(46 minutes ago)
VFR
Wind Visibility
90° at 6 knots 10,000+ meters
Clouds
  • Scattered at 7,000' AGL
Temperature Dewpoint
24°C / 75°F 8°C / 46°F
Humidity Altimeter Pressure
36% 29.95" Hg 1013.4 hPa